Time;durP1;ratioP1;P1;durP2;ratioP2;P2;SDS_P1;SDS_P2;PMS_P1;PMS_P2;Temp;Humidity;BMP_temperature;BMP_pressure;BME280_temperature;BME280_humidity;BME280_pressure;Samples;Min_cycle;Max_cycle;Signal;HPM_P1;HPM_P2
2021/03/11 00:01:33;;;;;;;2.75;2.30;;;17.20;35.00;;;;;;4832099;29;20657;-81
2021/03/11 00:04:00;;;;;;;2.95;2.05;;;17.20;35.00;;;;;;4832289;29;20177;-80
2021/03/11 00:06:26;;;;;;;2.50;2.10;;;17.20;34.90;;;;;;4848939;29;20169;-79
2021/03/11 00:08:53;;;;;;;2.45;2.20;;;17.20;34.90;;;;;;4850321;29;20165;-82
2021/03/11 00:11:19;;;;;;;2.85;2.42;;;17.20;35.00;;;;;;4849506;29;20198;-80
2021/03/11 00:13:46;;;;;;;3.05;2.10;;;17.20;35.00;;;;;;4833944;29;20647;-82
2021/03/11 00:16:12;;;;;;;2.60;2.17;;;17.20;34.80;;;;;;4849566;29;20170;-81
2021/03/11 00:18:39;;;;;;;2.95;2.30;;;17.20;34.90;;;;;;4849506;29;20210;-82
2021/03/11 00:21:06;;;;;;;4.97;2.10;;;17.20;34.90;;;;;;4853929;29;20193;-81
2021/03/11 00:23:33;;;;;;;2.40;2.20;;;17.20;34.90;;;;;;4837003;29;20162;-81
2021/03/11 00:26:00;;;;;;;3.05;2.13;;;17.20;35.00;;;;;;4853803;29;20685;-82
2021/03/11 00:28:26;;;;;;;3.10;2.60;;;17.20;35.00;;;;;;4852705;29;20169;-82
2021/03/11 00:30:57;;;;;;;2.00;1.80;;;17.20;35.00;;;;;;4852738;29;20669;-80
2021/03/11 00:33:23;;;;;;;2.40;2.20;;;17.10;35.00;;;;;;4852243;29;20161;-82
2021/03/11 00:35:51;;;;;;;3.63;2.35;;;17.20;35.10;;;;;;4853392;29;20161;-81
2021/03/11 00:38:18;;;;;;;2.85;2.22;;;17.10;35.00;;;;;;4853482;29;20165;-82
2021/03/11 00:40:45;;;;;;;2.75;2.20;;;17.20;35.60;;;;;;4850744;29;20204;-82
2021/03/11 00:43:19;;;;;;;3.47;2.20;;;17.20;34.90;;;;;;4836517;29;20177;-82
2021/03/11 00:45:47;;;;;;;3.22;2.08;;;17.20;35.00;;;;;;4852716;29;20157;-81
2021/03/11 00:48:22;;;;;;;3.20;2.30;;;17.10;35.00;;;;;;4851851;29;20182;-81
2021/03/11 00:50:48;;;;;;;2.30;2.10;;;17.10;35.00;;;;;;4853133;29;20208;-81
2021/03/11 00:53:14;;;;;;;2.53;2.28;;;17.10;35.00;;;;;;4851910;29;20219;-81
2021/03/11 00:55:41;;;;;;;2.35;2.15;;;17.20;35.00;;;;;;4851846;29;20187;-81
2021/03/11 00:58:07;;;;;;;4.32;2.50;;;17.10;34.90;;;;;;4852659;29;20618;-82
2021/03/11 01:00:34;;;;;;;2.40;2.03;;;17.10;35.00;;;;;;4852640;29;20214;-81
2021/03/11 01:03:01;;;;;;;2.53;2.10;;;17.10;35.00;;;;;;4834837;29;20633;-83
2021/03/11 01:05:30;;;;;;;3.47;2.47;;;17.10;35.00;;;;;;4849071;29;20618;-83
2021/03/11 01:08:02;;;;;;;2.88;2.20;;;17.10;35.00;;;;;;4835017;29;20174;-81
2021/03/11 01:10:28;;;;;;;2.55;2.30;;;17.10;35.00;;;;;;4851433;29;20210;-81
2021/03/11 01:12:55;;;;;;;2.40;2.20;;;17.10;35.00;;;;;;4851650;29;20153;-82
2021/03/11 01:15:33;;;;;;;3.00;2.17;;;17.10;35.10;;;;;;4850509;29;20197;-81
2021/03/11 01:18:00;;;;;;;2.40;2.20;;;17.10;35.10;;;;;;4851586;29;20157;-82
2021/03/11 01:20:28;;;;;;;2.30;2.10;;;17.10;35.10;;;;;;4851619;29;20194;-82
2021/03/11 01:22:56;;;;;;;3.47;2.33;;;17.10;35.00;;;;;;4849367;29;20166;-82
2021/03/11 01:25:22;;;;;;;2.80;1.95;;;17.10;35.10;;;;;;4851064;29;20243;-82
2021/03/11 01:27:50;;;;;;;2.75;2.00;;;17.10;35.20;;;;;;4849254;29;20162;-82
2021/03/11 01:30:18;;;;;;;2.30;2.10;;;17.00;35.20;;;;;;4849102;29;20261;-81
2021/03/11 01:32:45;;;;;;;3.95;2.30;;;17.00;35.10;;;;;;4849275;29;20214;-81
2021/03/11 01:35:12;;;;;;;2.25;2.05;;;17.00;35.20;;;;;;4849138;29;20178;-81
2021/03/11 01:37:39;;;;;;;2.67;2.40;;;17.00;35.10;;;;;;4849316;29;20162;-81
2021/03/11 01:40:08;;;;;;;3.28;2.13;;;17.00;35.20;;;;;;4849672;29;20240;-82
2021/03/11 01:42:35;;;;;;;2.47;2.28;;;17.00;35.30;;;;;;4848881;29;20170;-81
2021/03/11 01:45:02;;;;;;;2.35;2.10;;;17.00;35.20;;;;;;4850545;29;20168;-81
2021/03/11 01:47:31;;;;;;;3.08;2.20;;;17.00;35.20;;;;;;4850621;29;20169;-82
2021/03/11 01:50:03;;;;;;;2.63;2.20;;;17.00;35.30;;;;;;4848179;29;20245;-82
2021/03/11 01:52:29;;;;;;;4.53;2.40;;;17.00;35.20;;;;;;4848342;29;20212;-80
2021/03/11 01:54:56;;;;;;;3.15;2.22;;;17.00;35.20;;;;;;4849537;29;20241;-81
2021/03/11 01:57:30;;;;;;;3.00;2.20;;;17.00;35.30;;;;;;4848083;29;20164;-82
2021/03/11 01:59:57;;;;;;;2.88;1.98;;;17.00;35.30;;;;;;4847436;29;20163;-81
2021/03/11 02:02:24;;;;;;;2.45;2.25;;;17.00;35.30;;;;;;4847934;29;20173;-82
2021/03/11 02:04:50;;;;;;;2.20;1.95;;;17.00;35.20;;;;;;4849028;29;20162;-81
2021/03/11 02:07:16;;;;;;;2.58;2.13;;;17.00;35.20;;;;;;4847019;29;20278;-80
2021/03/11 02:09:51;;;;;;;2.65;2.13;;;17.00;35.20;;;;;;4847226;29;20150;-80
2021/03/11 02:12:25;;;;;;;2.58;2.17;;;17.00;35.20;;;;;;4847262;29;20549;-81
2021/03/11 02:15:03;;;;;;;3.63;2.03;;;17.00;35.20;;;;;;4833040;29;20639;-82
2021/03/11 02:17:40;;;;;;;3.40;2.20;;;16.90;35.20;;;;;;4846844;29;20174;-82
2021/03/11 02:20:27;;;;;;;2.70;2.38;;;17.00;35.20;;;;;;4848557;29;20321;-82
2021/03/11 02:23:05;;;;;;;2.40;2.20;;;17.00;35.20;;;;;;4847058;29;20248;-80
2021/03/11 02:26:14;;;;;;;3.20;2.47;;;17.00;35.20;;;;;;4848538;29;20248;-81
2021/03/11 02:29:15;;;;;;;2.83;2.33;;;17.00;35.30;;;;;;4790918;30;20256;-80
2021/03/11 02:31:42;;;;;;;3.10;2.15;;;16.90;35.30;;;;;;4773314;30;20273;-81
2021/03/11 02:34:16;;;;;;;2.65;2.20;;;16.90;35.40;;;;;;4757801;30;20283;-81
2021/03/11 02:36:43;;;;;;;3.28;2.28;;;16.90;35.40;;;;;;4757982;30;20193;-82
2021/03/11 02:39:14;;;;;;;2.67;2.30;;;16.90;35.30;;;;;;4772780;30;20191;-82
2021/03/11 02:41:42;;;;;;;2.50;2.10;;;16.90;35.30;;;;;;4772974;30;20405;-79
2021/03/11 02:44:09;;;;;;;2.65;2.30;;;17.00;35.30;;;;;;4772657;30;20188;-82
2021/03/11 02:46:42;;;;;;;2.72;2.22;;;16.90;35.30;;;;;;4772524;30;20313;-81
2021/03/11 02:49:10;;;;;;;2.70;2.22;;;16.90;35.40;;;;;;4772801;30;20188;-82
2021/03/11 02:51:45;;;;;;;2.97;2.30;;;16.90;35.50;;;;;;4772607;30;20204;-80
2021/03/11 02:54:11;;;;;;;3.08;2.40;;;16.90;35.40;;;;;;4772675;30;20171;-81
2021/03/11 02:56:38;;;;;;;2.55;2.20;;;16.80;35.40;;;;;;4773427;30;20232;-81
2021/03/11 02:59:05;;;;;;;2.90;2.28;;;16.90;35.40;;;;;;4772694;30;20188;-80
2021/03/11 03:01:34;;;;;;;2.85;2.55;;;16.90;35.30;;;;;;4774816;29;20248;-81
2021/03/11 03:04:09;;;;;;;2.40;2.20;;;16.90;35.40;;;;;;4811047;29;20162;-81
2021/03/11 03:06:36;;;;;;;2.60;2.30;;;16.90;35.40;;;;;;4842511;29;20185;-80
2021/03/11 03:09:04;;;;;;;3.78;2.03;;;16.90;35.50;;;;;;4845958;29;20165;-80
2021/03/11 03:11:32;;;;;;;3.47;1.95;;;16.80;35.40;;;;;;4845814;29;20205;-81
2021/03/11 03:14:00;;;;;;;2.75;2.15;;;16.90;35.50;;;;;;4847068;29;20223;-81
2021/03/11 03:16:27;;;;;;;2.58;2.35;;;16.90;35.50;;;;;;4845533;29;20162;-80
2021/03/11 03:18:53;;;;;;;2.40;2.10;;;16.80;35.40;;;;;;4847001;29;20168;-81
2021/03/11 03:21:19;;;;;;;2.40;2.20;;;16.90;35.50;;;;;;4845392;29;20165;-82
2021/03/11 03:23:46;;;;;;;2.90;2.30;;;16.90;35.40;;;;;;4844722;29;20622;-81
2021/03/11 03:26:12;;;;;;;2.40;1.83;;;16.80;35.50;;;;;;4829708;29;20620;-81
2021/03/11 03:28:47;;;;;;;3.58;2.20;;;16.80;35.50;;;;;;4847929;29;20166;-81
2021/03/11 03:31:22;;;;;;;3.42;2.08;;;16.80;35.50;;;;;;4848370;29;20184;-80
2021/03/11 03:33:48;;;;;;;3.60;2.28;;;16.80;35.40;;;;;;4848625;29;20222;-81
2021/03/11 03:36:14;;;;;;;2.40;2.20;;;16.90;35.40;;;;;;4849979;29;20193;-81
2021/03/11 03:38:40;;;;;;;2.95;2.20;;;16.90;35.40;;;;;;4850264;29;20526;-81
2021/03/11 03:41:07;;;;;;;2.00;1.80;;;16.80;35.40;;;;;;4849781;29;20607;-79
2021/03/11 03:43:36;;;;;;;3.20;2.38;;;16.80;35.50;;;;;;4848827;29;20173;-82
2021/03/11 03:46:03;;;;;;;2.42;2.20;;;16.80;35.50;;;;;;4848211;29;20158;-80
2021/03/11 03:48:51;;;;;;;3.63;2.40;;;16.80;35.50;;;;;;4848784;29;20169;-81
2021/03/11 03:51:37;;;;;;;2.20;2.00;;;16.80;35.50;;;;;;4848051;29;20196;-81
2021/03/11 03:54:32;;;;;;;2.40;2.05;;;16.80;35.40;;;;;;4846776;29;20169;-81
2021/03/11 03:57:10;;;;;;;3.47;2.33;;;16.80;35.50;;;;;;4848419;29;20170;-81
2021/03/11 03:59:38;;;;;;;3.05;2.30;;;16.80;35.50;;;;;;4847846;29;20644;-82
2021/03/11 04:02:04;;;;;;;3.58;2.10;;;16.80;35.40;;;;;;4847224;29;20161;-81
2021/03/11 04:04:36;;;;;;;2.50;2.28;;;16.80;35.50;;;;;;4832290;29;20184;-82
2021/03/11 04:07:16;;;;;;;2.65;2.13;;;16.80;35.50;;;;;;4849505;29;20603;-81
2021/03/11 04:09:42;;;;;;;2.83;2.08;;;16.80;35.40;;;;;;4831734;29;20173;-80
2021/03/11 04:12:10;;;;;;;2.47;2.08;;;16.80;35.50;;;;;;4847882;29;20657;-80
2021/03/11 04:14:39;;;;;;;2.30;2.10;;;16.80;35.50;;;;;;4846872;29;20172;-80
2021/03/11 04:17:08;;;;;;;2.80;2.40;;;16.80;35.50;;;;;;4832284;29;20659;-81
2021/03/11 04:19:45;;;;;;;2.63;2.03;;;16.80;35.50;;;;;;4847468;29;20174;-80
2021/03/11 04:22:12;;;;;;;2.55;2.00;;;16.80;35.50;;;;;;4847714;29;20169;-81
2021/03/11 04:24:38;;;;;;;2.20;2.00;;;16.80;35.50;;;;;;4847208;29;20256;-81
2021/03/11 04:27:06;;;;;;;2.20;2.00;;;16.80;35.60;;;;;;4848616;29;20184;-82
2021/03/11 04:29:41;;;;;;;2.85;1.88;;;16.70;35.60;;;;;;4846534;29;20192;-81
2021/03/11 04:32:09;;;;;;;3.20;2.20;;;16.70;35.60;;;;;;4847334;29;20280;-80
2021/03/11 04:34:37;;;;;;;2.20;2.00;;;16.70;35.60;;;;;;4846884;29;20162;-81
2021/03/11 04:37:05;;;;;;;2.38;2.13;;;16.80;35.60;;;;;;4846957;29;20161;-80
2021/03/11 04:39:40;;;;;;;2.35;2.00;;;16.80;35.70;;;;;;4848153;29;20178;-81
2021/03/11 04:42:07;;;;;;;2.60;2.20;;;16.80;35.60;;;;;;4846397;29;20172;-80
2021/03/11 04:44:33;;;;;;;3.55;2.05;;;16.70;35.60;;;;;;4846449;29;20188;-82
2021/03/11 04:47:00;;;;;;;2.83;2.35;;;16.70;35.80;;;;;;4846661;29;20618;-81
2021/03/11 04:49:29;;;;;;;3.70;2.17;;;16.80;35.70;;;;;;4846402;29;20200;-82
2021/03/11 04:51:55;;;;;;;3.45;2.10;;;16.70;35.60;;;;;;4847927;29;20232;-81
2021/03/11 04:54:22;;;;;;;2.10;1.85;;;16.70;35.70;;;;;;4846568;29;20200;-82
2021/03/11 04:56:49;;;;;;;2.55;2.33;;;16.70;35.70;;;;;;4846444;29;20173;-81
2021/03/11 04:59:16;;;;;;;2.63;2.28;;;16.70;35.70;;;;;;4831197;29;20169;-81
2021/03/11 05:01:47;;;;;;;2.70;2.00;;;16.80;35.60;;;;;;4846945;29;20641;-80
2021/03/11 05:04:14;;;;;;;2.30;1.95;;;16.80;35.50;;;;;;4846359;29;20161;-80
2021/03/11 05:06:48;;;;;;;2.10;1.85;;;16.80;35.30;;;;;;4846568;29;20173;-80
2021/03/11 05:09:15;;;;;;;2.05;1.85;;;16.80;35.20;;;;;;4845901;29;20181;-81
2021/03/11 05:11:45;;;;;;;2.72;2.38;;;16.80;35.20;;;;;;4846693;29;20200;-80
2021/03/11 05:14:12;;;;;;;2.80;2.20;;;16.90;35.20;;;;;;4846803;29;20627;-80
2021/03/11 05:16:39;;;;;;;1.95;1.70;;;16.90;35.20;;;;;;4846939;29;20168;-81
2021/03/11 05:19:04;;;;;;;2.80;2.10;;;16.80;35.10;;;;;;4846659;29;20162;-81
2021/03/11 05:21:33;;;;;;;3.22;2.45;;;16.90;35.10;;;;;;4847239;29;20229;-80
2021/03/11 05:23:59;;;;;;;2.25;2.05;;;16.90;35.00;;;;;;4845180;29;20169;-81
2021/03/11 05:26:34;;;;;;;2.55;2.20;;;16.90;35.10;;;;;;4845241;29;20190;-80
2021/03/11 05:29:00;;;;;;;3.15;2.08;;;16.90;35.20;;;;;;4846443;29;20234;-81
2021/03/11 05:31:27;;;;;;;2.60;2.20;;;16.80;35.10;;;;;;4844906;29;20606;-80
2021/03/11 05:33:53;;;;;;;2.08;1.88;;;16.90;34.80;;;;;;4845274;29;20170;-81
2021/03/11 05:36:28;;;;;;;2.05;1.85;;;17.00;34.80;;;;;;4846040;29;20161;-82
2021/03/11 05:39:02;;;;;;;3.45;1.88;;;17.00;34.80;;;;;;4845647;29;20673;-82
2021/03/11 05:41:29;;;;;;;3.45;2.08;;;17.00;34.80;;;;;;4846250;29;20729;-81
2021/03/11 05:43:56;;;;;;;2.15;1.95;;;17.00;34.80;;;;;;4846057;29;20214;-82
2021/03/11 05:46:22;;;;;;;2.67;2.03;;;16.90;34.90;;;;;;4845521;29;20646;-80
2021/03/11 05:48:48;;;;;;;2.10;1.90;;;16.90;35.00;;;;;;4844981;29;20162;-81
2021/03/11 05:51:17;;;;;;;2.20;2.00;;;16.90;34.90;;;;;;4844972;29;20193;-80
2021/03/11 05:53:52;;;;;;;2.40;1.90;;;16.90;34.90;;;;;;4845211;29;20641;-82
2021/03/11 05:56:26;;;;;;;2.05;1.85;;;17.00;34.70;;;;;;4829741;29;20542;-81
2021/03/11 05:58:55;;;;;;;2.05;1.85;;;17.00;34.80;;;;;;4845256;29;20165;-81
2021/03/11 06:01:21;;;;;;;2.50;1.92;;;17.00;34.70;;;;;;4845249;29;20651;-80
2021/03/11 06:03:55;;;;;;;2.83;1.85;;;17.00;34.60;;;;;;4845664;29;20236;-80
2021/03/11 06:06:21;;;;;;;2.15;1.83;;;17.00;34.50;;;;;;4845632;29;20169;-82
2021/03/11 06:08:49;;;;;;;2.13;1.85;;;17.00;34.70;;;;;;4846286;29;20158;-81
2021/03/11 06:11:15;;;;;;;1.95;1.60;;;16.90;34.70;;;;;;4844635;29;20265;-80
2021/03/11 06:13:41;;;;;;;2.33;2.03;;;16.90;34.80;;;;;;4845129;29;20625;-80
2021/03/11 06:16:12;;;;;;;2.17;1.98;;;16.90;34.60;;;;;;4831256;29;20686;-81
2021/03/11 06:18:39;;;;;;;1.92;1.80;;;16.90;34.60;;;;;;4829574;29;20169;-82
2021/03/11 06:21:04;;;;;;;1.90;1.75;;;16.90;34.70;;;;;;4845343;29;20622;-79
2021/03/11 06:23:31;;;;;;;2.00;1.80;;;16.90;34.60;;;;;;4844954;29;20358;-81
2021/03/11 06:25:57;;;;;;;2.17;1.95;;;16.90;34.60;;;;;;4844480;29;20244;-81
2021/03/11 06:28:45;;;;;;;2.03;1.83;;;16.90;34.60;;;;;;4844449;29;20172;-81
2021/03/11 06:31:33;;;;;;;2.20;1.90;;;17.00;34.50;;;;;;4843606;29;20240;-80
2021/03/11 06:34:00;;;;;;;2.10;1.90;;;17.00;34.40;;;;;;4844652;29;20161;-82
2021/03/11 06:36:29;;;;;;;2.25;1.90;;;17.00;34.50;;;;;;4844408;29;20158;-80
2021/03/11 06:38:58;;;;;;;2.00;1.80;;;17.00;34.40;;;;;;4829363;29;20210;-81
2021/03/11 06:41:25;;;;;;;1.85;1.63;;;17.00;34.40;;;;;;4828380;29;20193;-79
2021/03/11 06:43:59;;;;;;;1.70;1.60;;;17.00;34.40;;;;;;4843888;29;20419;-79
2021/03/11 06:46:26;;;;;;;1.70;1.60;;;16.90;34.50;;;;;;4843800;29;20164;-81
2021/03/11 06:49:11;;;;;;;3.20;2.25;;;16.90;34.40;;;;;;4829700;29;20174;-80
2021/03/11 06:51:38;;;;;;;1.67;1.58;;;16.90;34.40;;;;;;4844553;29;20201;-80
2021/03/11 06:54:08;;;;;;;2.83;1.83;;;17.00;34.30;;;;;;4845164;29;20178;-79
2021/03/11 06:56:40;;;;;;;2.42;2.03;;;16.90;34.50;;;;;;4844576;29;20177;-80
2021/03/11 06:59:10;;;;;;;1.90;1.70;;;16.90;34.40;;;;;;4844939;29;20245;-81
2021/03/11 07:01:47;;;;;;;2.05;1.70;;;16.90;34.40;;;;;;4845808;29;20176;-80
2021/03/11 07:04:26;;;;;;;1.77;1.63;;;17.00;34.50;;;;;;4849375;29;20221;-82
2021/03/11 07:06:52;;;;;;;2.25;1.90;;;16.90;34.80;;;;;;4854298;29;20523;-81
2021/03/11 07:09:18;;;;;;;2.00;1.70;;;17.00;35.10;;;;;;4853936;29;20197;-83
2021/03/11 07:11:54;;;;;;;3.28;2.10;;;17.00;35.10;;;;;;4853322;29;20213;-82
2021/03/11 07:14:27;;;;;;;2.00;1.80;;;17.00;34.90;;;;;;4853685;29;20157;-83
2021/03/11 07:16:54;;;;;;;2.50;1.95;;;16.90;34.90;;;;;;4852137;29;20198;-83
2021/03/11 07:19:21;;;;;;;2.15;1.95;;;16.90;35.10;;;;;;4853260;29;20225;-82
2021/03/11 07:21:50;;;;;;;2.10;1.83;;;16.90;34.90;;;;;;4838014;29;20189;-82
2021/03/11 07:24:35;;;;;;;1.90;1.70;;;17.00;34.60;;;;;;4837041;29;20296;-83
2021/03/11 07:27:02;;;;;;;1.75;1.65;;;17.00;34.70;;;;;;4837025;29;20197;-82
2021/03/11 07:29:30;;;;;;;2.03;1.83;;;17.00;34.50;;;;;;4852722;29;20180;-83
2021/03/11 07:31:57;;;;;;;2.08;1.88;;;17.00;34.70;;;;;;4837283;29;20223;-83
2021/03/11 07:34:39;;;;;;;2.13;1.80;;;17.00;34.60;;;;;;4836520;29;20543;-83
2021/03/11 07:37:05;;;;;;;2.25;1.80;;;17.00;34.50;;;;;;4835857;29;20162;-83
2021/03/11 07:39:34;;;;;;;2.00;1.80;;;17.00;34.50;;;;;;4805012;29;20189;-82
2021/03/11 07:42:04;;;;;;;2.28;2.08;;;17.00;34.40;;;;;;4820937;29;20168;-82
2021/03/11 07:44:30;;;;;;;2.00;1.80;;;17.00;34.40;;;;;;4804469;29;20178;-83
2021/03/11 07:46:58;;;;;;;4.28;1.98;;;17.00;34.50;;;;;;4820639;29;20166;-82
2021/03/11 07:49:23;;;;;;;2.00;1.80;;;16.90;34.50;;;;;;4804390;29;20169;-81
2021/03/11 07:51:49;;;;;;;2.10;1.90;;;16.90;34.60;;;;;;4830332;29;20602;-83
2021/03/11 07:54:15;;;;;;;2.45;2.00;;;16.90;34.60;;;;;;4849864;29;20193;-82
2021/03/11 07:56:41;;;;;;;2.50;1.90;;;16.90;34.70;;;;;;4849069;29;20189;-82
2021/03/11 07:59:10;;;;;;;2.30;2.10;;;17.00;34.50;;;;;;4848019;29;20170;-81
2021/03/11 08:02:00;;;;;;;2.25;1.95;;;16.90;34.50;;;;;;4831891;29;20720;-83
2021/03/11 08:04:42;;;;;;;2.35;2.00;;;17.00;34.60;;;;;;4846633;29;20701;-81
2021/03/11 08:07:26;;;;;;;2.03;1.75;;;16.90;34.60;;;;;;4846752;29;20187;-82
2021/03/11 08:10:19;;;;;;;2.30;2.03;;;16.90;34.60;;;;;;4847121;29;20170;-82
2021/03/11 08:12:47;;;;;;;2.28;1.90;;;17.00;34.60;;;;;;4848346;29;20205;-81
2021/03/11 08:15:16;;;;;;;2.38;1.95;;;17.00;34.50;;;;;;4850031;29;20172;-82
2021/03/11 08:17:55;;;;;;;2.42;2.13;;;16.90;34.60;;;;;;4852135;29;20220;-82
2021/03/11 08:20:26;;;;;;;3.33;2.22;;;17.00;34.50;;;;;;4839117;29;20269;-84
2021/03/11 08:25:33;;;;;;;2.75;2.33;;;17.00;34.40;;;;;;4855342;29;20352;-83
2021/03/11 08:28:03;;;;;;;2.90;2.47;;;17.00;34.50;;;;;;4852949;29;20162;-82
2021/03/11 08:30:38;;;;;;;2.40;2.20;;;17.00;34.40;;;;;;4839444;29;20177;-81
2021/03/11 08:33:09;;;;;;;2.88;2.42;;;17.00;34.40;;;;;;4854113;29;20226;-82
2021/03/11 08:35:39;;;;;;;2.67;2.35;;;17.00;34.40;;;;;;4854137;29;20170;-83
2021/03/11 08:38:20;;;;;;;2.88;2.50;;;17.10;34.30;;;;;;4835317;29;20192;-83
2021/03/11 08:41:03;;;;;;;3.30;2.50;;;17.10;34.20;;;;;;4850261;29;20158;-83
2021/03/11 08:43:38;;;;;;;3.03;2.60;;;17.10;34.30;;;;;;4835432;29;20188;-82
2021/03/11 08:46:10;;;;;;;3.33;2.83;;;17.10;34.20;;;;;;4851064;29;20209;-82
2021/03/11 08:48:49;;;;;;;2.42;2.22;;;17.00;34.40;;;;;;4850510;29;20322;-82
2021/03/11 08:51:17;;;;;;;3.88;2.80;;;17.10;34.40;;;;;;4834629;29;20206;-83
2021/03/11 08:53:56;;;;;;;3.10;2.63;;;17.00;34.40;;;;;;4849977;29;20165;-82
2021/03/11 08:56:22;;;;;;;3.53;2.70;;;17.10;34.40;;;;;;4849646;29;20157;-82
2021/03/11 08:59:03;;;;;;;3.40;2.97;;;17.00;34.40;;;;;;4850166;29;20162;-82
2021/03/11 09:01:49;;;;;;;4.25;3.00;;;17.10;34.40;;;;;;4836251;29;20165;-82
2021/03/11 09:04:31;;;;;;;3.42;3.10;;;17.00;34.40;;;;;;4851742;29;20154;-82
2021/03/11 09:07:05;;;;;;;3.92;2.92;;;17.00;34.40;;;;;;4852962;29;20664;-83
2021/03/11 09:09:37;;;;;;;5.68;3.25;;;17.10;34.40;;;;;;4833735;29;20189;-83
2021/03/11 09:12:26;;;;;;;3.22;2.78;;;17.10;34.40;;;;;;4853039;29;20201;-82
2021/03/11 09:15:09;;;;;;;4.47;3.55;;;17.20;34.20;;;;;;4853393;29;20166;-83
2021/03/11 09:17:36;;;;;;;4.18;3.33;;;17.20;34.00;;;;;;4854232;29;20168;-82
2021/03/11 09:20:16;;;;;;;3.38;3.00;;;17.20;34.10;;;;;;4835477;29;20169;-82
2021/03/11 09:22:50;;;;;;;4.00;3.30;;;17.20;34.00;;;;;;4841195;29;20272;-82
2021/03/11 09:25:27;;;;;;;4.05;3.63;;;17.30;34.00;;;;;;4850944;29;20221;-83
2021/03/11 09:28:01;;;;;;;4.97;3.35;;;17.30;34.00;;;;;;4837857;29;20173;-82
2021/03/11 09:30:36;;;;;;;5.28;4.05;;;17.30;34.00;;;;;;4857860;29;20167;-82
2021/03/11 09:33:12;;;;;;;5.03;3.90;;;17.30;33.90;;;;;;4860321;29;20228;-82
2021/03/11 09:35:43;;;;;;;5.35;4.07;;;17.30;33.90;;;;;;4861913;29;20632;-81
2021/03/11 09:38:13;;;;;;;4.07;3.67;;;17.30;33.90;;;;;;4844434;29;20170;-84
2021/03/11 09:40:43;;;;;;;6.80;4.40;;;17.30;33.90;;;;;;4856061;29;20180;-82
2021/03/11 09:43:17;;;;;;;5.97;4.55;;;17.30;34.00;;;;;;4839275;29;20177;-82
2021/03/11 09:45:52;;;;;;;4.53;3.90;;;17.30;33.90;;;;;;4860860;29;20151;-83
2021/03/11 09:48:25;;;;;;;5.43;4.35;;;17.30;33.90;;;;;;4854750;29;20169;-82
2021/03/11 09:50:57;;;;;;;5.82;4.50;;;17.40;33.90;;;;;;4842129;29;20198;-83
2021/03/11 09:53:34;;;;;;;5.07;4.22;;;17.30;33.90;;;;;;4836772;29;20199;-83
2021/03/11 09:56:07;;;;;;;5.95;4.70;;;17.30;33.90;;;;;;4857847;29;20176;-83
2021/03/11 09:58:48;;;;;;;5.47;4.28;;;17.30;34.00;;;;;;4840838;29;20180;-82
2021/03/11 10:01:57;;;;;;;6.15;4.80;;;17.30;33.90;;;;;;4854598;29;20221;-82
2021/03/11 10:04:28;;;;;;;6.35;4.72;;;17.30;33.90;;;;;;4852105;29;20202;-82
2021/03/11 10:06:59;;;;;;;6.80;4.70;;;17.30;33.90;;;;;;4838221;29;20184;-82
2021/03/11 10:09:37;;;;;;;6.90;4.93;;;17.30;34.00;;;;;;4837991;29;20173;-83
2021/03/11 10:12:07;;;;;;;7.40;5.30;;;17.30;33.90;;;;;;4853267;29;20217;-83
2021/03/11 10:14:34;;;;;;;5.47;4.50;;;17.30;33.90;;;;;;4856650;29;20165;-82
2021/03/11 10:17:03;;;;;;;6.35;5.18;;;17.20;34.00;;;;;;4855411;29;20157;-80
2021/03/11 10:19:28;;;;;;;6.43;5.25;;;17.20;34.00;;;;;;4855276;29;20153;-80
2021/03/11 10:22:04;;;;;;;5.97;4.88;;;17.20;34.20;;;;;;4856427;29;20180;-80
2021/03/11 10:24:52;;;;;;;7.00;5.13;;;17.20;34.10;;;;;;4856047;29;20315;-81
2021/03/11 10:27:34;;;;;;;6.68;5.60;;;17.20;34.00;;;;;;4854244;29;20188;-80
2021/03/11 10:30:03;;;;;;;7.40;5.50;;;17.30;33.90;;;;;;4854508;29;20180;-80
2021/03/11 10:32:38;;;;;;;7.65;5.70;;;17.40;33.80;;;;;;4854779;29;20206;-80
2021/03/11 10:35:08;;;;;;;7.57;6.03;;;17.30;33.80;;;;;;4839025;29;20173;-80
2021/03/11 10:37:36;;;;;;;7.10;5.50;;;17.30;33.90;;;;;;4854593;29;20165;-80
2021/03/11 10:40:10;;;;;;;7.95;5.95;;;17.30;34.00;;;;;;4839543;29;20173;-80
2021/03/11 10:42:47;;;;;;;8.57;6.50;;;17.30;33.90;;;;;;4840252;29;20181;-80
2021/03/11 10:45:22;;;;;;;8.25;5.93;;;17.40;33.90;;;;;;4854890;29;20169;-80
2021/03/11 10:48:05;;;;;;;8.07;6.28;;;17.40;33.80;;;;;;4855438;29;20168;-81
2021/03/11 10:50:43;;;;;;;8.77;6.28;;;17.30;34.50;;;;;;4839827;29;20173;-80
2021/03/11 10:53:10;;;;;;;8.13;6.15;;;17.40;33.80;;;;;;4840304;29;20189;-80
2021/03/11 10:55:39;;;;;;;7.65;5.97;;;17.40;33.70;;;;;;4854917;29;20212;-81
2021/03/11 10:58:19;;;;;;;8.35;6.57;;;17.40;33.60;;;;;;4854355;29;20176;-80
2021/03/11 11:00:47;;;;;;;8.32;6.38;;;17.40;33.70;;;;;;4839534;29;20201;-80
2021/03/11 11:03:21;;;;;;;8.00;6.25;;;17.40;33.70;;;;;;4840011;29;20186;-81
2021/03/11 11:05:54;;;;;;;9.15;6.90;;;17.40;33.80;;;;;;4856182;29;20561;-81
2021/03/11 11:08:29;;;;;;;8.93;6.85;;;17.30;33.80;;;;;;4840968;29;20236;-79
2021/03/11 11:11:04;;;;;;;9.02;6.70;;;17.30;33.90;;;;;;4855895;29;20161;-81
2021/03/11 11:13:31;;;;;;;9.98;7.38;;;17.30;33.90;;;;;;4854569;29;20208;-82
2021/03/11 11:16:01;;;;;;;9.00;6.60;;;17.30;33.90;;;;;;4839630;29;20173;-81
2021/03/11 11:18:28;;;;;;;11.32;7.47;;;17.20;34.00;;;;;;4838609;29;20577;-81
2021/03/11 11:20:54;;;;;;;10.07;7.70;;;17.20;34.10;;;;;;4839670;29;20249;-81
2021/03/11 11:23:21;;;;;;;10.48;7.63;;;17.10;34.80;;;;;;4854813;29;20225;-81
2021/03/11 11:25:48;;;;;;;10.88;7.85;;;17.20;34.10;;;;;;4855142;29;20270;-81
2021/03/11 11:28:15;;;;;;;9.13;7.10;;;17.20;34.20;;;;;;4839712;29;20178;-80
2021/03/11 11:30:43;;;;;;;10.07;7.55;;;17.10;34.10;;;;;;4854992;29;20166;-80
2021/03/11 11:33:18;;;;;;;12.55;7.78;;;17.10;34.10;;;;;;4854974;29;20275;-81
2021/03/11 11:35:55;;;;;;;10.70;8.35;;;17.10;34.10;;;;;;4854889;29;20195;-81
2021/03/11 11:38:26;;;;;;;9.98;7.70;;;17.10;34.20;;;;;;4854684;29;20702;-81
2021/03/11 11:40:52;;;;;;;13.32;8.30;;;17.10;34.10;;;;;;4839617;29;20547;-82
2021/03/11 11:43:20;;;;;;;12.02;8.50;;;17.10;34.00;;;;;;4854189;29;20193;-81
2021/03/11 11:45:51;;;;;;;11.48;8.32;;;17.10;34.00;;;;;;4853861;29;20259;-80
2021/03/11 11:48:21;;;;;;;11.70;9.02;;;17.20;33.90;;;;;;4839871;29;20203;-81
2021/03/11 11:50:52;;;;;;;10.27;8.27;;;17.20;33.90;;;;;;4859904;29;20172;-81
2021/03/11 11:53:23;;;;;;;11.27;8.52;;;17.20;34.00;;;;;;4843004;29;20184;-80
2021/03/11 11:55:50;;;;;;;11.75;8.65;;;17.10;34.00;;;;;;4858066;29;20162;-82
2021/03/11 11:58:18;;;;;;;11.75;8.80;;;17.10;34.00;;;;;;4857121;29;20158;-81
2021/03/11 12:00:45;;;;;;;10.40;7.93;;;17.10;34.80;;;;;;4856157;29;20161;-81
2021/03/11 12:03:12;;;;;;;11.65;9.00;;;17.10;34.20;;;;;;4856925;29;20181;-80
2021/03/11 12:05:39;;;;;;;11.38;9.13;;;17.20;34.00;;;;;;4842565;29;20178;-80
2021/03/11 12:08:07;;;;;;;11.95;8.73;;;17.20;33.80;;;;;;4856870;29;20178;-80
2021/03/11 12:10:34;;;;;;;11.80;8.90;;;17.20;33.90;;;;;;4849196;29;20201;-81
2021/03/11 12:13:01;;;;;;;12.23;9.18;;;17.20;33.90;;;;;;4850200;29;20206;-82
2021/03/11 12:15:31;;;;;;;13.57;9.15;;;17.20;33.90;;;;;;4848143;29;20165;-83
2021/03/11 12:17:58;;;;;;;13.18;9.80;;;17.20;33.90;;;;;;4848615;29;20185;-81
2021/03/11 12:20:25;;;;;;;14.13;10.30;;;17.20;33.90;;;;;;4848634;29;20162;-85
2021/03/11 12:22:53;;;;;;;11.82;9.07;;;17.20;33.80;;;;;;4849133;29;20169;-84
2021/03/11 12:25:19;;;;;;;13.50;9.32;;;17.20;33.90;;;;;;4848199;29;20236;-81
2021/03/11 12:27:46;;;;;;;12.45;9.55;;;17.20;33.90;;;;;;4830812;29;20200;-84
2021/03/11 12:30:22;;;;;;;12.30;9.32;;;17.20;33.90;;;;;;4847617;29;20197;-81
2021/03/11 12:32:56;;;;;;;14.00;10.40;;;17.20;33.80;;;;;;4834831;29;20212;-84
2021/03/11 12:35:24;;;;;;;13.48;9.50;;;17.20;33.80;;;;;;4848854;29;20164;-85
2021/03/11 12:37:52;;;;;;;13.35;10.30;;;17.20;33.70;;;;;;4846569;29;20177;-82
2021/03/11 12:40:19;;;;;;;13.77;10.35;;;17.20;33.70;;;;;;4850835;29;20188;-83
2021/03/11 12:42:49;;;;;;;12.85;9.77;;;17.20;33.70;;;;;;4855874;29;20162;-80
2021/03/11 12:45:27;;;;;;;14.05;10.18;;;17.20;33.70;;;;;;4841309;29;20161;-82
2021/03/11 12:47:54;;;;;;;13.30;10.10;;;17.20;33.80;;;;;;4856266;29;20218;-81
2021/03/11 12:50:21;;;;;;;14.98;10.50;;;17.20;33.70;;;;;;4856553;29;20165;-80
2021/03/11 12:52:56;;;;;;;13.82;10.32;;;17.20;33.80;;;;;;4840936;29;20236;-80
2021/03/11 12:55:22;;;;;;;14.27;10.70;;;17.20;33.90;;;;;;4856504;29;20192;-80
2021/03/11 12:57:58;;;;;;;15.40;11.00;;;17.10;33.90;;;;;;4856422;29;20186;-80
2021/03/11 13:00:27;;;;;;;14.48;10.73;;;17.10;33.90;;;;;;4841284;29;20173;-80
2021/03/11 13:02:54;;;;;;;14.00;10.95;;;17.10;33.90;;;;;;4857142;29;20170;-80
2021/03/11 13:05:20;;;;;;;14.77;11.02;;;17.20;33.90;;;;;;4857776;29;20161;-80
2021/03/11 13:07:50;;;;;;;14.40;10.88;;;17.20;33.90;;;;;;4842710;29;20553;-82